createdAt,value
2023-03-02T00:02:56.534Z,96.22
2023-03-02T00:06:06.629Z,96.96
2023-03-02T00:08:59.353Z,96.85
2023-03-02T00:12:22.790Z,97.04
2023-03-02T00:15:42.669Z,97.10
2023-03-02T00:18:36.573Z,97.75
2023-03-02T00:21:27.799Z,98.21
2023-03-02T00:24:19.544Z,98.77
2023-03-02T00:27:51.119Z,99.15
2023-03-02T00:31:40.521Z,98.86
2023-03-02T00:34:19.622Z,99.09
2023-03-02T00:37:11.438Z,99.58
2023-03-02T00:40:43.167Z,99.88
2023-03-02T00:43:38.060Z,99.84
2023-03-02T00:46:16.815Z,99.91
2023-03-02T00:49:48.380Z,100.00
2023-03-02T00:52:24.481Z,100.00
2023-03-02T00:55:39.353Z,100.00
2023-03-02T00:58:53.843Z,100.00
2023-03-02T01:01:31.310Z,100.00
2023-03-02T01:04:25.123Z,100.00
2023-03-02T01:07:39.029Z,100.00
2023-03-02T01:10:38.827Z,100.00
2023-03-02T01:13:30.452Z,100.00
2023-03-02T01:16:53.116Z,100.00
2023-03-02T01:20:22.628Z,100.00
2023-03-02T01:23:41.878Z,100.00
2023-03-02T01:26:30.938Z,100.00
2023-03-02T01:29:42.348Z,100.00
2023-03-02T01:32:54.309Z,100.00
2023-03-02T01:36:43.505Z,100.00
2023-03-02T01:39:55.601Z,100.00
2023-03-02T01:42:42.628Z,100.00
2023-03-02T01:46:12.194Z,100.00
2023-03-02T01:49:42.140Z,100.00
2023-03-02T01:53:15.281Z,100.00
2023-03-02T01:56:24.551Z,100.00
2023-03-02T01:59:45.208Z,100.00
2023-03-02T02:02:19.265Z,100.00
2023-03-02T02:04:55.091Z,100.00
2023-03-02T02:07:29.193Z,100.00
2023-03-02T02:10:21.634Z,100.00
2023-03-02T02:13:35.772Z,100.00
2023-03-02T02:16:35.874Z,100.00
2023-03-02T02:19:30.464Z,100.00
2023-03-02T02:23:06.595Z,100.00
2023-03-02T02:26:12.013Z,100.00
2023-03-02T02:29:31.928Z,100.00
2023-03-02T02:32:32.171Z,100.00
2023-03-02T02:35:39.002Z,100.00
2023-03-02T02:39:10.665Z,100.00
2023-03-02T02:42:07.043Z,100.00
2023-03-02T02:45:28.453Z,100.00
2023-03-02T02:48:17.955Z,100.00
2023-03-02T02:51:06.526Z,100.00
2023-03-02T02:54:37.703Z,100.00
2023-03-02T02:57:31.592Z,100.00
2023-03-02T03:01:00.678Z,100.00
2023-03-02T03:03:59.944Z,100.00
2023-03-02T03:07:06.834Z,100.00
2023-03-02T03:09:47.699Z,100.00
2023-03-02T03:13:24.757Z,100.00
2023-03-02T03:16:03.875Z,100.00
2023-03-02T03:19:06.644Z,100.00
2023-03-02T03:21:37.418Z,100.00
2023-03-02T03:25:16.938Z,100.00
2023-03-02T03:28:18.233Z,100.00
2023-03-02T03:31:20.551Z,100.00
2023-03-02T03:34:20.436Z,100.00
2023-03-02T03:37:50.487Z,100.00
2023-03-02T03:40:39.852Z,100.00
2023-03-02T03:43:40.513Z,100.00
2023-03-02T03:46:36.818Z,100.00
2023-03-02T03:49:37.237Z,100.00
2023-03-02T03:52:46.099Z,100.00
2023-03-02T03:56:35.478Z,100.00
2023-03-02T04:00:06.159Z,100.00
2023-03-02T04:03:35.041Z,100.00
2023-03-02T04:06:37.962Z,100.00
2023-03-02T04:09:47.623Z,100.00
2023-03-02T04:12:36.131Z,100.00
2023-03-02T04:15:33.921Z,100.00
2023-03-02T04:18:52.601Z,100.00
2023-03-02T04:22:06.071Z,100.00
2023-03-02T04:24:57.925Z,100.00
2023-03-02T04:28:00.731Z,100.00
2023-03-02T04:31:15.443Z,100.00
2023-03-02T04:37:41.733Z,100.00
2023-03-02T04:41:23.418Z,100.00
2023-03-02T04:44:35.436Z,100.00
2023-03-02T04:47:33.829Z,100.00
2023-03-02T04:50:15.191Z,100.00
2023-03-02T04:53:13.520Z,100.00
2023-03-02T04:56:05.006Z,100.00
2023-03-02T04:59:06.888Z,100.00
2023-03-02T05:02:56.059Z,100.00
2023-03-02T05:05:47.693Z,100.00
2023-03-02T05:09:04.789Z,100.00
2023-03-02T05:12:13.602Z,100.00
2023-03-02T05:14:55.366Z,100.00
2023-03-02T05:17:35.249Z,100.00
2023-03-02T05:20:37.785Z,100.00
2023-03-02T05:23:25.581Z,100.00
2023-03-02T05:26:44.269Z,100.00
2023-03-02T05:29:33.326Z,100.00
2023-03-02T05:32:26.598Z,100.00
2023-03-02T05:35:07.937Z,100.00
2023-03-02T05:38:16.999Z,100.00
2023-03-02T05:40:53.488Z,100.00
2023-03-02T05:43:27.246Z,100.00
2023-03-02T05:46:22.141Z,100.00
2023-03-02T05:49:05.011Z,100.00
2023-03-02T05:51:58.920Z,100.00
2023-03-02T05:54:49.870Z,100.00
2023-03-02T05:57:38.345Z,100.00
2023-03-02T06:00:08.657Z,100.00
2023-03-02T06:02:57.162Z,100.00
2023-03-02T06:05:51.068Z,100.00
2023-03-02T06:08:43.478Z,100.00
2023-03-02T06:11:18.003Z,100.00
2023-03-02T06:14:12.657Z,100.00
2023-03-02T06:16:52.167Z,100.00
2023-03-02T06:19:43.516Z,100.00
2023-03-02T06:22:32.049Z,100.00
2023-03-02T06:25:25.100Z,100.00
2023-03-02T06:28:22.153Z,100.00
2023-03-02T06:30:51.336Z,100.00
2023-03-02T06:33:30.447Z,100.00
2023-03-02T06:36:28.881Z,100.00
2023-03-02T06:39:19.013Z,100.00
2023-03-02T06:42:48.100Z,100.00
2023-03-02T06:45:38.238Z,100.00
2023-03-02T06:48:12.199Z,100.00
2023-03-02T06:50:53.508Z,100.00
2023-03-02T06:54:24.049Z,100.00
2023-03-02T06:57:22.108Z,100.00
2023-03-02T07:00:11.008Z,100.00
2023-03-02T07:02:47.325Z,100.00
2023-03-02T07:05:50.116Z,100.00
2023-03-02T07:08:21.722Z,100.00
2023-03-02T07:11:43.825Z,100.00
2023-03-02T07:26:28.087Z,100.00
2023-03-02T07:28:59.360Z,100.00
2023-03-02T07:31:27.881Z,100.00
2023-03-02T07:34:21.369Z,100.00
2023-03-02T07:37:08.009Z,100.00
2023-03-02T07:40:00.796Z,100.00
2023-03-02T07:42:47.114Z,100.00
2023-03-02T07:45:21.467Z,100.00
2023-03-02T07:48:13.242Z,100.00
2023-03-02T07:50:41.802Z,100.00
2023-03-02T07:53:13.372Z,100.00
2023-03-02T07:55:54.762Z,100.00
2023-03-02T07:59:33.832Z,100.00
2023-03-02T08:02:39.775Z,100.00
2023-03-02T08:05:18.519Z,100.00
2023-03-02T08:07:47.494Z,100.00
2023-03-02T08:10:39.664Z,100.00
2023-03-02T08:13:33.954Z,100.00
2023-03-02T08:16:23.142Z,100.00
2023-03-02T08:18:54.612Z,100.00
2023-03-02T08:21:49.323Z,100.00
2023-03-02T08:24:41.770Z,100.00
2023-03-02T08:27:17.959Z,100.00
2023-03-02T08:29:59.040Z,100.00
2023-03-02T08:32:27.832Z,100.00
2023-03-02T08:35:34.168Z,100.00
2023-03-02T08:38:45.700Z,100.00
2023-03-02T08:42:26.163Z,100.00
2023-03-02T08:45:53.122Z,100.00
2023-03-02T08:48:57.695Z,100.00
2023-03-02T08:51:57.190Z,100.00
2023-03-02T08:55:06.900Z,100.00
2023-03-02T08:57:49.753Z,100.00
2023-03-02T09:00:44.744Z,100.00
2023-03-02T09:03:56.184Z,100.00
2023-03-02T09:06:47.324Z,100.00
2023-03-02T09:09:59.996Z,100.00
2023-03-02T09:13:16.815Z,100.00
2023-03-02T09:16:27.463Z,100.00
2023-03-02T09:19:44.513Z,100.00
2023-03-02T09:23:07.982Z,100.00
2023-03-02T09:26:16.922Z,100.00
2023-03-02T09:29:26.127Z,100.00
2023-03-02T09:33:05.251Z,99.95
2023-03-02T09:35:55.961Z,99.37
2023-03-02T09:39:09.472Z,97.81
2023-03-02T09:42:25.417Z,97.74
2023-03-02T09:45:41.256Z,96.57
2023-03-02T09:49:20.050Z,95.40
2023-03-02T09:52:16.508Z,94.21
2023-03-02T09:55:25.523Z,87.63
2023-03-02T09:58:44.990Z,83.47
2023-03-02T10:01:55.222Z,83.11
2023-03-02T10:05:03.137Z,81.25
2023-03-02T10:08:12.621Z,79.99
2023-03-02T10:11:47.434Z,77.52
2023-03-02T10:15:11.920Z,78.07
2023-03-02T10:19:04.392Z,76.43
2023-03-02T10:22:33.718Z,74.93
2023-03-02T10:25:59.384Z,73.01
2023-03-02T10:29:11.545Z,69.78
2023-03-02T10:43:43.500Z,62.76
2023-03-02T10:47:11.194Z,66.30
2023-03-02T10:49:47.613Z,61.69
2023-03-02T10:52:59.772Z,58.75
2023-03-02T10:56:32.923Z,55.93
2023-03-02T10:59:37.269Z,57.62
2023-03-02T11:02:38.795Z,54.51
2023-03-02T11:05:44.382Z,52.31
2023-03-02T11:08:46.940Z,51.51
2023-03-02T11:11:50.949Z,50.12
2023-03-02T11:14:39.490Z,48.96
2023-03-02T11:17:37.172Z,49.00
2023-03-02T11:21:17.772Z,48.30
2023-03-02T11:24:59.600Z,45.97
2023-03-02T11:28:30.657Z,47.86
2023-03-02T11:31:39.168Z,46.11
2023-03-02T11:35:31.679Z,44.14
2023-03-02T11:39:21.139Z,41.68
2023-03-02T12:19:05.854Z,36.89
2023-03-02T12:22:34.431Z,35.90
2023-03-02T12:26:00.813Z,35.82
2023-03-02T12:29:19.196Z,35.25
2023-03-02T12:32:54.156Z,36.17
2023-03-02T12:36:06.800Z,35.13
2023-03-02T12:41:59.917Z,35.39
2023-03-02T12:48:51.020Z,33.93
2023-03-02T12:51:55.807Z,32.99
2023-03-02T12:54:37.295Z,34.24
2023-03-02T13:04:59.739Z,32.27
2023-03-02T13:08:25.492Z,32.09
2023-03-02T13:11:49.257Z,32.29
2023-03-02T13:14:35.036Z,32.05
2023-03-02T13:18:04.345Z,32.19
2023-03-02T13:21:41.965Z,31.21
2023-03-02T13:29:14.433Z,30.26
2023-03-02T13:32:29.595Z,30.07
2023-03-02T13:35:31.476Z,29.60
2023-03-02T13:39:20.314Z,29.27
2023-03-02T13:43:00.061Z,29.33
2023-03-02T13:46:00.392Z,28.53
2023-03-02T13:48:33.537Z,28.83
2023-03-02T13:59:00.695Z,26.58
2023-03-02T14:01:36.779Z,26.60
2023-03-02T14:04:23.183Z,26.06
2023-03-02T14:07:09.477Z,26.74
2023-03-02T14:09:50.774Z,27.65
2023-03-02T14:12:46.652Z,28.37
2023-03-02T14:16:01.432Z,29.52
2023-03-02T14:19:30.259Z,30.65
2023-03-02T14:23:06.813Z,32.10
2023-03-02T14:25:57.438Z,33.46
2023-03-02T14:29:04.665Z,34.08
2023-03-02T14:32:54.643Z,34.39
2023-03-02T14:36:10.759Z,34.87
2023-03-02T14:39:18.937Z,34.64
2023-03-02T14:42:32.756Z,34.49
2023-03-02T14:45:44.832Z,35.36
2023-03-02T14:48:40.694Z,35.83
2023-03-02T14:52:19.680Z,36.38
2023-03-02T14:55:52.185Z,37.19
2023-03-02T14:59:13.437Z,37.45
2023-03-02T15:02:55.379Z,37.68
2023-03-02T15:06:01.780Z,37.77
2023-03-02T15:08:59.222Z,38.32
2023-03-02T15:12:18.296Z,38.81
2023-03-02T15:15:57.410Z,39.12
2023-03-02T15:18:45.655Z,39.72
2023-03-02T15:21:48.462Z,39.94
2023-03-02T15:24:38.136Z,40.93
2023-03-02T15:27:18.924Z,40.89
2023-03-02T15:29:51.086Z,41.23
2023-03-02T15:32:31.260Z,41.23
2023-03-02T15:35:15.381Z,41.14
2023-03-02T15:38:28.392Z,40.96
2023-03-02T15:41:48.336Z,41.16
2023-03-02T15:45:37.589Z,41.43
2023-03-02T15:48:43.326Z,42.12
2023-03-02T15:51:52.969Z,42.64
2023-03-02T15:55:02.069Z,42.79
2023-03-02T15:57:40.262Z,43.45
2023-03-02T16:00:54.257Z,43.77
2023-03-02T16:03:44.275Z,44.38
2023-03-02T16:07:05.245Z,44.54
2023-03-02T16:10:26.764Z,44.84
2023-03-02T16:13:41.254Z,45.38
2023-03-02T16:17:20.655Z,45.85
2023-03-02T16:20:51.195Z,46.53
2023-03-02T16:24:29.509Z,47.23
2023-03-02T16:27:31.304Z,47.57
2023-03-02T16:31:02.978Z,48.15
2023-03-02T16:33:41.338Z,48.99
2023-03-02T16:36:32.858Z,49.24
2023-03-02T16:39:23.407Z,49.65
2023-03-02T16:42:50.373Z,50.06
2023-03-02T16:46:14.506Z,51.04
2023-03-02T16:49:45.518Z,51.64
2023-03-02T16:53:34.996Z,52.45
2023-03-02T16:57:24.372Z,52.79
2023-03-02T17:00:55.469Z,53.69
2023-03-02T17:04:27.450Z,54.14
2023-03-02T17:08:17.104Z,54.94
2023-03-02T17:11:29.708Z,56.01
2023-03-02T17:18:50.124Z,57.30
2023-03-02T18:08:13.575Z,67.30
2023-03-02T18:18:10.950Z,69.53
2023-03-02T18:21:43.236Z,69.60
2023-03-02T18:25:24.274Z,70.02
2023-03-02T18:28:55.889Z,70.07
2023-03-02T18:32:45.333Z,70.51
2023-03-02T18:36:15.731Z,71.19
2023-03-02T18:39:38.242Z,71.49
2023-03-02T18:46:47.583Z,73.08
2023-03-02T18:50:08.397Z,73.96
2023-03-02T18:53:39.355Z,74.99
2023-03-02T19:03:11.307Z,76.08
2023-03-02T19:06:21.361Z,76.65
2023-03-02T19:09:43.165Z,76.97
2023-03-02T19:13:33.306Z,77.11
2023-03-02T19:17:20.911Z,77.52
2023-03-02T19:19:58.918Z,77.88
2023-03-02T19:23:09.421Z,78.17
2023-03-02T19:26:38.184Z,78.35
2023-03-02T19:30:20.197Z,78.84
2023-03-02T19:33:41.296Z,78.71
2023-03-02T19:40:49.260Z,79.43
2023-03-02T19:43:23.128Z,80.30
2023-03-02T19:46:52.632Z,79.99
2023-03-02T19:49:34.555Z,80.45
2023-03-02T19:52:36.949Z,80.93
2023-03-02T19:55:37.660Z,81.51
2023-03-02T19:59:01.488Z,82.09
2023-03-02T20:02:30.904Z,83.04
2023-03-02T20:05:40.699Z,82.74
2023-03-02T20:09:19.368Z,82.91
2023-03-02T20:12:11.650Z,83.32
2023-03-02T20:15:24.284Z,83.48
2023-03-02T20:19:04.384Z,84.01
2023-03-02T20:22:50.337Z,84.31
2023-03-02T20:26:32.544Z,84.86
2023-03-02T20:30:14.687Z,85.06
2023-03-02T20:33:30.152Z,84.66
2023-03-02T20:37:19.483Z,85.30
2023-03-02T20:40:49.257Z,86.09
2023-03-02T20:44:38.642Z,86.20
2023-03-02T20:48:11.424Z,86.88
2023-03-02T21:10:16.703Z,88.35
2023-03-02T21:13:28.418Z,89.08
2023-03-02T21:16:48.694Z,89.40
2023-03-02T21:20:08.748Z,88.83
2023-03-02T21:23:26.805Z,89.59
2023-03-02T21:26:45.591Z,90.45
2023-03-02T21:30:17.656Z,90.58
2023-03-02T21:34:06.852Z,90.58
2023-03-02T21:37:56.060Z,90.76
2023-03-02T21:41:35.163Z,91.01
2023-03-02T21:45:47.131Z,91.58
2023-03-02T21:49:36.752Z,91.97
2023-03-02T21:53:21.096Z,92.09
2023-03-02T21:56:56.043Z,91.80
2023-03-02T22:00:47.879Z,92.01
2023-03-02T22:04:17.796Z,92.91
2023-03-02T22:22:31.291Z,95.34
2023-03-02T22:26:19.188Z,95.06
2023-03-02T22:30:09.367Z,94.85
2023-03-02T22:33:59.055Z,95.02
2023-03-02T22:37:40.361Z,95.32
2023-03-02T22:41:11.332Z,96.13
2023-03-02T22:44:51.774Z,96.04
2023-03-02T22:48:34.836Z,96.68
2023-03-02T23:04:02.126Z,97.77
2023-03-02T23:07:41.152Z,97.79
2023-03-02T23:11:03.029Z,97.61
2023-03-02T23:15:01.420Z,97.96
2023-03-02T23:18:53.899Z,98.41
2023-03-02T23:22:19.275Z,98.76
2023-03-02T23:25:50.599Z,99.01
2023-03-02T23:29:29.504Z,98.64
2023-03-02T23:44:06.997Z,99.93
